createdAt,value
2022-11-01T00:01:07.125Z,100.00
2022-11-01T00:03:33.669Z,100.00
2022-11-01T00:06:00.203Z,100.00
2022-11-01T00:08:26.861Z,100.00
2022-11-01T00:10:53.418Z,100.00
2022-11-01T00:13:19.860Z,100.00
2022-11-01T00:15:46.300Z,100.00
2022-11-01T00:18:12.722Z,100.00
2022-11-01T00:20:39.165Z,100.00
2022-11-01T00:23:05.610Z,100.00
2022-11-01T00:25:32.078Z,100.00
2022-11-01T00:27:58.736Z,100.00
2022-11-01T00:30:25.382Z,100.00
2022-11-01T00:32:51.802Z,100.00
2022-11-01T00:35:18.294Z,100.00
2022-11-01T00:37:44.814Z,100.00
2022-11-01T00:40:11.764Z,100.00
2022-11-01T00:42:38.235Z,100.00
2022-11-01T00:45:05.147Z,100.00
2022-11-01T00:47:31.598Z,100.00
2022-11-01T00:49:58.075Z,100.00
2022-11-01T00:52:24.563Z,100.00
2022-11-01T00:54:51.136Z,100.00
2022-11-01T00:57:17.627Z,100.00
2022-11-01T00:59:44.146Z,100.00
2022-11-01T01:02:10.804Z,100.00
2022-11-01T01:04:41.564Z,100.00
2022-11-01T01:07:08.166Z,100.00
2022-11-01T01:09:34.712Z,100.00
2022-11-01T01:12:01.857Z,100.00
2022-11-01T01:14:32.304Z,100.00
2022-11-01T01:16:59.436Z,100.00
2022-11-01T01:19:26.073Z,100.00
2022-11-01T01:21:52.502Z,100.00
2022-11-01T01:24:19.018Z,100.00
2022-11-01T01:26:45.490Z,100.00
2022-11-01T01:29:13.716Z,100.00
2022-11-01T01:31:40.183Z,100.00
2022-11-01T01:34:06.773Z,100.00
2022-11-01T01:36:33.341Z,100.00
2022-11-01T01:38:59.849Z,100.00
2022-11-01T01:41:44.803Z,100.00
2022-11-01T01:44:51.664Z,100.00
2022-11-01T01:47:32.011Z,100.00
2022-11-01T01:50:17.523Z,100.00
2022-11-01T01:52:48.004Z,100.00
2022-11-01T01:55:18.923Z,100.00
2022-11-01T01:57:46.423Z,100.00
2022-11-01T02:00:13.838Z,100.00
2022-11-01T02:02:42.051Z,100.00
2022-11-01T02:05:28.274Z,100.00
2022-11-01T02:07:56.433Z,100.00
2022-11-01T02:10:23.753Z,100.00
2022-11-01T02:12:50.248Z,100.00
2022-11-01T02:15:18.963Z,100.00
2022-11-01T02:18:09.338Z,100.00
2022-11-01T02:21:03.894Z,100.00
2022-11-01T02:23:49.187Z,100.00
2022-11-01T02:26:52.581Z,100.00
2022-11-01T02:29:45.703Z,100.00
2022-11-01T02:32:17.925Z,100.00
2022-11-01T02:34:54.273Z,100.00
2022-11-01T02:37:55.932Z,100.00
2022-11-01T02:40:41.069Z,100.00
2022-11-01T02:43:16.120Z,100.00
2022-11-01T02:45:48.156Z,100.00
2022-11-01T02:48:14.916Z,100.00
2022-11-01T02:50:50.692Z,100.00
2022-11-01T02:53:17.143Z,100.00
2022-11-01T02:58:20.075Z,100.00
2022-11-01T03:00:46.893Z,100.00
2022-11-01T03:03:25.915Z,100.00
2022-11-01T03:05:58.700Z,100.00
2022-11-01T03:08:33.546Z,100.00
2022-11-01T03:11:11.127Z,100.00
2022-11-01T03:13:46.587Z,100.00
2022-11-01T03:16:34.561Z,100.00
2022-11-01T03:19:22.418Z,100.00
2022-11-01T03:22:00.089Z,100.00
2022-11-01T03:24:29.165Z,100.00
2022-11-01T03:27:03.960Z,100.00
2022-11-01T03:29:31.992Z,100.00
2022-11-01T03:32:00.208Z,100.00
2022-11-01T03:34:26.656Z,100.00
2022-11-01T03:37:04.457Z,100.00
2022-11-01T03:39:41.000Z,100.00
2022-11-01T03:42:10.900Z,100.00
2022-11-01T03:44:43.396Z,100.00
2022-11-01T03:47:11.447Z,100.00
2022-11-01T03:49:37.888Z,100.00
2022-11-01T03:52:04.493Z,100.00
2022-11-01T03:54:30.936Z,100.00
2022-11-01T03:56:57.505Z,100.00
2022-11-01T03:59:24.124Z,100.00
2022-11-01T04:01:50.729Z,100.00
2022-11-01T04:04:17.265Z,100.00
2022-11-01T04:06:43.768Z,100.00
2022-11-01T04:09:10.386Z,100.00
2022-11-01T04:11:36.836Z,100.00
2022-11-01T04:14:21.839Z,100.00
2022-11-01T04:17:06.751Z,100.00
2022-11-01T04:19:51.522Z,100.00
2022-11-01T04:22:20.621Z,100.00
2022-11-01T04:24:50.074Z,100.00
2022-11-01T04:27:16.535Z,100.00
2022-11-01T04:29:42.972Z,100.00
2022-11-01T04:32:09.415Z,100.00
2022-11-01T04:34:45.021Z,100.00
2022-11-01T04:37:11.992Z,100.00
2022-11-01T04:39:38.523Z,100.00
2022-11-01T04:42:05.335Z,100.00
2022-11-01T04:44:31.865Z,100.00
2022-11-01T04:46:58.340Z,100.00
2022-11-01T04:49:24.816Z,100.00
2022-11-01T04:51:51.247Z,100.00
2022-11-01T04:54:17.761Z,100.00
2022-11-01T04:56:44.223Z,100.00
2022-11-01T04:59:10.680Z,100.00
2022-11-01T05:01:37.282Z,100.00
2022-11-01T05:04:04.019Z,100.00
2022-11-01T05:06:30.499Z,100.00
2022-11-01T05:08:56.956Z,100.00
2022-11-01T05:11:25.791Z,100.00
2022-11-01T05:13:52.536Z,100.00
2022-11-01T05:16:20.453Z,100.00
2022-11-01T05:18:48.118Z,100.00
2022-11-01T05:21:14.576Z,100.00
2022-11-01T05:23:41.042Z,100.00
2022-11-01T05:26:07.540Z,100.00
2022-11-01T05:28:34.678Z,100.00
2022-11-01T05:31:01.206Z,100.00
2022-11-01T05:33:27.719Z,100.00
2022-11-01T05:35:54.184Z,100.00
2022-11-01T05:38:20.754Z,100.00
2022-11-01T05:40:47.374Z,100.00
2022-11-01T05:43:14.593Z,100.00
2022-11-01T05:45:41.036Z,100.00
2022-11-01T05:48:07.588Z,100.00
2022-11-01T05:50:34.052Z,100.00
2022-11-01T05:53:10.353Z,100.00
2022-11-01T05:55:37.428Z,100.00
2022-11-01T05:58:04.097Z,100.00
2022-11-01T06:00:31.202Z,100.00
2022-11-01T06:02:58.803Z,100.00
2022-11-01T06:05:26.786Z,100.00
2022-11-01T06:07:53.280Z,100.00
2022-11-01T06:10:19.906Z,100.00
2022-11-01T06:12:46.424Z,100.00
2022-11-01T06:15:12.903Z,100.00
2022-11-01T06:17:39.355Z,100.00
2022-11-01T06:20:06.332Z,100.00
2022-11-01T06:22:35.833Z,100.00
2022-11-01T06:25:02.363Z,100.00
2022-11-01T06:27:29.066Z,100.00
2022-11-01T06:29:55.568Z,100.00
2022-11-01T06:32:22.077Z,100.00
2022-11-01T06:34:48.552Z,100.00
2022-11-01T06:37:15.285Z,100.00
2022-11-01T06:39:41.739Z,100.00
2022-11-01T06:42:09.121Z,100.00
2022-11-01T06:44:35.689Z,100.00
2022-11-01T06:47:02.215Z,100.00
2022-11-01T06:49:29.409Z,100.00
2022-11-01T06:51:55.942Z,100.00
2022-11-01T06:54:22.447Z,100.00
2022-11-01T06:56:48.973Z,100.00
2022-11-01T06:59:16.786Z,100.00
2022-11-01T07:01:44.131Z,100.00
2022-11-01T07:06:38.217Z,100.00
2022-11-01T07:09:04.724Z,100.00
2022-11-01T07:11:32.678Z,100.00
2022-11-01T07:13:59.463Z,100.00
2022-11-01T07:16:26.628Z,100.00
2022-11-01T07:18:53.533Z,100.00
2022-11-01T07:21:20.438Z,100.00
2022-11-01T07:23:47.222Z,100.00
2022-11-01T07:26:13.996Z,100.00
2022-11-01T07:28:41.047Z,100.00
2022-11-01T07:31:08.404Z,100.00
2022-11-01T07:33:37.112Z,100.00
2022-11-01T07:36:06.244Z,100.00
2022-11-01T07:38:54.625Z,100.00
2022-11-01T07:41:25.383Z,100.00
2022-11-01T07:44:01.711Z,100.00
2022-11-01T07:46:46.782Z,100.00
2022-11-01T07:52:15.956Z,100.00
2022-11-01T07:54:44.401Z,100.00
2022-11-01T07:57:11.090Z,100.00
2022-11-01T07:59:37.962Z,100.00
2022-11-01T08:02:07.837Z,100.00
2022-11-01T08:04:35.201Z,100.00
2022-11-01T08:07:01.741Z,100.00
2022-11-01T08:09:30.872Z,100.00
2022-11-01T08:12:02.915Z,100.00
2022-11-01T08:15:01.158Z,100.00
2022-11-01T08:17:36.741Z,100.00
2022-11-01T08:20:07.091Z,100.00
2022-11-01T08:22:38.072Z,100.00
2022-11-01T08:25:25.973Z,100.00
2022-11-01T08:27:53.087Z,100.00
2022-11-01T08:30:27.018Z,100.00
2022-11-01T08:33:04.584Z,100.00
2022-11-01T08:35:32.772Z,100.00
2022-11-01T08:37:59.937Z,100.00
2022-11-01T08:40:28.627Z,100.00
2022-11-01T08:42:55.799Z,100.00
2022-11-01T08:45:22.407Z,100.00
2022-11-01T08:47:49.218Z,100.00
2022-11-01T08:50:17.972Z,100.00
2022-11-01T08:52:44.603Z,100.00
2022-11-01T08:55:11.711Z,100.00
2022-11-01T08:57:38.395Z,100.00
2022-11-01T09:00:07.178Z,100.00
2022-11-01T09:02:34.379Z,100.00
2022-11-01T09:05:06.154Z,100.00
2022-11-01T09:07:34.775Z,100.00
2022-11-01T09:10:01.535Z,98.21
2022-11-01T09:12:29.504Z,93.75
2022-11-01T09:14:56.194Z,91.76
2022-11-01T09:17:23.291Z,90.19
2022-11-01T09:19:50.022Z,87.48
2022-11-01T09:22:16.557Z,87.63
2022-11-01T09:24:43.116Z,83.98
2022-11-01T09:27:09.962Z,85.13
2022-11-01T09:29:37.372Z,87.22
2022-11-01T09:32:04.430Z,81.54
2022-11-01T09:34:31.042Z,83.26
2022-11-01T09:36:57.902Z,83.03
2022-11-01T09:39:24.457Z,83.06
2022-11-01T09:42:05.758Z,81.14
2022-11-01T09:44:37.448Z,80.21
2022-11-01T09:47:15.458Z,82.71
2022-11-01T09:49:46.466Z,77.35
2022-11-01T09:52:20.867Z,80.15
2022-11-01T09:54:48.194Z,75.13
2022-11-01T09:57:40.816Z,71.57
2022-11-01T10:00:20.188Z,69.98
2022-11-01T10:03:24.616Z,65.89
2022-11-01T10:06:19.837Z,62.24
2022-11-01T10:08:57.258Z,62.77
2022-11-01T10:11:47.631Z,61.41
2022-11-01T10:14:48.946Z,61.60
2022-11-01T10:17:34.831Z,58.49
2022-11-01T10:20:02.544Z,56.22
2022-11-01T10:22:34.096Z,53.23
2022-11-01T10:25:10.872Z,53.49
2022-11-01T10:27:58.164Z,51.77
2022-11-01T10:30:25.446Z,51.72
2022-11-01T10:32:57.985Z,53.36
2022-11-01T10:35:30.567Z,52.33
2022-11-01T10:38:41.935Z,52.10
2022-11-01T10:41:23.909Z,50.19
2022-11-01T10:43:55.867Z,50.52
2022-11-01T10:46:31.966Z,49.25
2022-11-01T10:49:03.034Z,50.76
2022-11-01T10:51:33.404Z,51.10
2022-11-01T10:54:04.719Z,50.90
2022-11-01T10:56:41.784Z,49.96
2022-11-01T10:59:22.831Z,49.04
2022-11-01T11:01:51.280Z,45.25
2022-11-01T11:04:23.898Z,46.17
2022-11-01T11:06:51.782Z,47.12
2022-11-01T11:09:38.451Z,47.99
2022-11-01T11:12:12.243Z,46.70
2022-11-01T11:14:40.206Z,45.60
2022-11-01T11:17:19.156Z,47.02
2022-11-01T11:19:47.524Z,49.02
2022-11-01T11:22:14.880Z,47.75
2022-11-01T11:24:43.989Z,47.68
2022-11-01T11:27:16.339Z,49.67
2022-11-01T11:29:50.837Z,54.09
2022-11-01T11:32:24.052Z,52.66
2022-11-01T11:34:55.135Z,51.35
2022-11-01T11:37:24.212Z,51.77
2022-11-01T11:40:01.088Z,51.74
2022-11-01T11:42:27.726Z,51.46
2022-11-01T11:44:56.820Z,52.09
2022-11-01T11:47:29.426Z,52.47
2022-11-01T11:49:58.225Z,52.23
2022-11-01T11:52:38.296Z,54.04
2022-11-01T11:55:06.061Z,54.68
2022-11-01T11:57:33.360Z,55.55
2022-11-01T12:00:05.177Z,54.79
2022-11-01T12:02:41.368Z,55.60
2022-11-01T12:05:15.209Z,57.51
2022-11-01T12:07:51.459Z,58.12
2022-11-01T12:10:39.069Z,56.75
2022-11-01T12:13:32.136Z,58.39
2022-11-01T12:16:14.632Z,56.50
2022-11-01T12:18:48.158Z,56.65
2022-11-01T12:21:19.040Z,60.25
2022-11-01T12:23:48.045Z,57.59
2022-11-01T12:26:17.319Z,58.49
2022-11-01T12:29:23.137Z,58.03
2022-11-01T12:31:51.387Z,58.94
2022-11-01T12:34:23.754Z,58.82
2022-11-01T12:37:04.175Z,60.14
2022-11-01T12:39:55.603Z,59.09
2022-11-01T12:42:31.408Z,59.48
2022-11-01T12:45:04.715Z,57.62
2022-11-01T12:47:42.056Z,58.77
2022-11-01T12:50:40.396Z,55.88
2022-11-01T12:53:18.869Z,57.08
2022-11-01T12:55:47.041Z,55.95
2022-11-01T12:58:21.554Z,56.92
2022-11-01T13:01:25.022Z,57.15
2022-11-01T13:04:17.667Z,55.98
2022-11-01T13:07:25.532Z,57.30
2022-11-01T13:10:17.485Z,56.77
2022-11-01T13:13:14.227Z,58.99
2022-11-01T13:15:59.713Z,55.97
2022-11-01T13:18:44.513Z,55.20
2022-11-01T13:21:14.513Z,56.65
2022-11-01T13:23:48.894Z,54.86
2022-11-01T13:26:28.087Z,54.97
2022-11-01T13:29:17.679Z,54.73
2022-11-01T13:32:07.354Z,56.83
2022-11-01T13:34:58.344Z,57.66
2022-11-01T13:37:51.757Z,56.50
2022-11-01T13:40:33.932Z,57.53
2022-11-01T13:43:10.955Z,58.07
2022-11-01T13:46:31.563Z,59.90
2022-11-01T13:49:10.388Z,58.64
2022-11-01T13:51:51.259Z,57.92
2022-11-01T13:54:20.403Z,58.13
2022-11-01T13:56:59.729Z,57.78
2022-11-01T13:59:29.344Z,57.64
2022-11-01T14:01:56.080Z,58.90
2022-11-01T14:04:22.547Z,59.49
2022-11-01T14:07:14.504Z,57.76
2022-11-01T14:09:48.439Z,58.52
2022-11-01T14:12:35.227Z,57.11
2022-11-01T14:15:13.560Z,58.72
2022-11-01T14:17:55.825Z,59.01
2022-11-01T14:20:25.388Z,58.35
2022-11-01T14:22:52.938Z,58.22
2022-11-01T14:28:15.924Z,58.13
2022-11-01T14:30:49.309Z,59.30
2022-11-01T14:33:19.586Z,59.28
2022-11-01T14:35:53.413Z,60.74
2022-11-01T14:38:28.419Z,59.64
2022-11-01T14:41:01.906Z,59.67
2022-11-01T14:44:11.782Z,59.56
2022-11-01T14:46:46.556Z,58.65
2022-11-01T14:49:26.518Z,60.47
2022-11-01T14:51:59.983Z,62.21
2022-11-01T14:54:52.102Z,61.00
2022-11-01T14:57:29.141Z,61.58
2022-11-01T14:59:57.076Z,62.27
2022-11-01T15:02:26.045Z,61.84
2022-11-01T15:05:00.414Z,62.49
2022-11-01T15:07:31.512Z,64.66
2022-11-01T15:10:06.025Z,64.41
2022-11-01T15:12:57.673Z,64.74
2022-11-01T15:15:35.268Z,64.76
2022-11-01T15:18:06.490Z,64.77
2022-11-01T15:20:42.370Z,66.53
2022-11-01T15:23:14.898Z,65.39
2022-11-01T15:25:43.219Z,64.81
2022-11-01T15:28:21.304Z,65.80
2022-11-01T15:30:55.203Z,66.54
2022-11-01T15:33:32.736Z,68.77
2022-11-01T15:36:02.942Z,67.98
2022-11-01T15:38:34.055Z,67.60
2022-11-01T15:41:21.960Z,68.54
2022-11-01T15:43:52.984Z,69.55
2022-11-01T15:46:20.361Z,70.23
2022-11-01T15:48:47.814Z,70.05
2022-11-01T15:51:22.859Z,70.65
2022-11-01T15:53:55.028Z,72.14
2022-11-01T15:56:30.860Z,75.35
2022-11-01T15:59:01.531Z,72.79
2022-11-01T16:01:28.435Z,76.01
2022-11-01T16:04:07.056Z,76.25
2022-11-01T16:06:38.798Z,73.67
2022-11-01T16:09:15.762Z,75.26
2022-11-01T16:11:43.406Z,78.50
2022-11-01T16:14:39.648Z,79.14
2022-11-01T16:17:22.948Z,82.15
2022-11-01T16:19:51.380Z,79.30
2022-11-01T16:22:36.581Z,81.10
2022-11-01T16:25:10.088Z,82.72
2022-11-01T16:28:02.109Z,80.96
2022-11-01T16:30:39.402Z,83.98
2022-11-01T16:33:23.476Z,84.72
2022-11-01T16:35:53.310Z,84.50
2022-11-01T16:38:39.402Z,83.39
2022-11-01T16:41:11.827Z,82.77
2022-11-01T16:43:38.302Z,83.93
2022-11-01T16:46:05.113Z,85.63
2022-11-01T16:48:34.326Z,87.25
2022-11-01T16:51:01.961Z,87.87
2022-11-01T16:53:30.382Z,89.37
2022-11-01T16:56:23.301Z,89.66
2022-11-01T16:58:50.852Z,92.56
2022-11-01T17:01:23.725Z,92.63
2022-11-01T17:03:51.147Z,93.45
2022-11-01T17:06:18.257Z,94.51
2022-11-01T17:08:44.827Z,94.90
2022-11-01T17:11:13.512Z,98.11
2022-11-01T17:13:41.174Z,97.02
2022-11-01T17:16:17.331Z,97.48
2022-11-01T17:18:45.177Z,97.76
2022-11-01T17:21:11.896Z,98.17
2022-11-01T17:23:38.729Z,97.86
2022-11-01T17:26:09.362Z,99.11
2022-11-01T17:28:36.517Z,100.00
2022-11-01T17:31:03.585Z,100.00
2022-11-01T17:33:30.390Z,100.00
2022-11-01T17:35:59.176Z,100.00
2022-11-01T17:38:30.379Z,100.00
2022-11-01T17:40:57.119Z,100.00
2022-11-01T17:43:23.771Z,100.00
2022-11-01T17:45:50.552Z,100.00
2022-11-01T17:48:18.514Z,100.00
2022-11-01T17:50:45.355Z,100.00
2022-11-01T17:53:13.844Z,100.00
2022-11-01T17:55:42.009Z,100.00
2022-11-01T17:58:09.711Z,100.00
2022-11-01T18:00:39.999Z,100.00
2022-11-01T18:03:06.551Z,100.00
2022-11-01T18:05:33.040Z,100.00
2022-11-01T18:08:02.623Z,100.00
2022-11-01T18:10:34.960Z,100.00
2022-11-01T18:13:27.984Z,100.00
2022-11-01T18:16:07.361Z,100.00
2022-11-01T18:19:00.392Z,100.00
2022-11-01T18:21:45.174Z,100.00
2022-11-01T18:24:22.236Z,100.00
2022-11-01T18:26:49.359Z,100.00
2022-11-01T18:29:23.961Z,100.00
2022-11-01T18:32:04.583Z,100.00
2022-11-01T18:34:58.583Z,100.00
2022-11-01T18:37:31.129Z,100.00
2022-11-01T18:40:16.752Z,100.00
2022-11-01T18:42:45.953Z,100.00
2022-11-01T18:45:19.563Z,100.00
2022-11-01T18:47:51.849Z,100.00
2022-11-01T18:50:28.281Z,100.00
2022-11-01T18:53:11.392Z,100.00
2022-11-01T18:55:39.322Z,100.00
2022-11-01T18:58:14.195Z,100.00
2022-11-01T19:00:40.854Z,100.00
2022-11-01T19:03:13.341Z,100.00
2022-11-01T19:05:40.825Z,100.00
2022-11-01T19:08:36.818Z,100.00
2022-11-01T19:11:03.266Z,100.00
2022-11-01T19:13:36.474Z,100.00
2022-11-01T19:16:04.461Z,100.00
2022-11-01T19:18:31.169Z,100.00
2022-11-01T19:20:59.614Z,100.00
2022-11-01T19:23:42.022Z,100.00
2022-11-01T19:26:36.752Z,100.00
2022-11-01T19:29:15.668Z,100.00
2022-11-01T19:31:44.648Z,100.00
2022-11-01T19:34:25.400Z,100.00
2022-11-01T19:36:52.724Z,100.00
2022-11-01T19:39:26.379Z,100.00
2022-11-01T19:41:54.739Z,100.00
2022-11-01T19:44:25.270Z,100.00
2022-11-01T19:46:59.783Z,100.00
2022-11-01T19:49:31.625Z,100.00
2022-11-01T19:52:02.680Z,100.00
2022-11-01T19:54:35.306Z,100.00
2022-11-01T19:59:49.470Z,100.00
2022-11-01T20:02:22.470Z,100.00
2022-11-01T20:04:56.537Z,100.00
2022-11-01T20:07:28.075Z,100.00
2022-11-01T20:09:58.615Z,100.00
2022-11-01T20:12:25.429Z,100.00
2022-11-01T20:14:51.856Z,100.00
2022-11-01T20:17:18.285Z,100.00
2022-11-01T20:19:45.188Z,100.00
2022-11-01T20:22:11.636Z,100.00
2022-11-01T20:24:38.081Z,100.00
2022-11-01T20:27:04.631Z,100.00
2022-11-01T20:29:31.127Z,100.00
2022-11-01T20:31:57.607Z,100.00
2022-11-01T20:34:25.626Z,100.00
2022-11-01T20:37:15.047Z,100.00
2022-11-01T20:39:38.508Z,100.00
2022-11-01T20:42:05.022Z,100.00
2022-11-01T20:44:31.486Z,100.00
2022-11-01T20:46:57.912Z,100.00
2022-11-01T20:49:24.362Z,100.00
2022-11-01T20:51:50.798Z,100.00
2022-11-01T20:54:18.263Z,100.00
2022-11-01T20:56:44.803Z,100.00
2022-11-01T20:59:12.247Z,100.00
2022-11-01T21:01:40.344Z,100.00
2022-11-01T21:04:12.960Z,100.00
2022-11-01T21:06:39.404Z,100.00
2022-11-01T21:09:34.653Z,100.00
2022-11-01T21:12:01.077Z,100.00
2022-11-01T21:14:36.958Z,100.00
2022-11-01T21:17:17.790Z,100.00
2022-11-01T21:19:52.149Z,100.00
2022-11-01T21:22:20.761Z,100.00
2022-11-01T21:24:51.018Z,100.00
2022-11-01T21:30:20.098Z,100.00
2022-11-01T21:32:47.201Z,100.00
2022-11-01T21:35:19.739Z,100.00
2022-11-01T21:37:56.259Z,100.00
2022-11-01T21:40:27.570Z,100.00
2022-11-01T21:42:57.924Z,100.00
2022-11-01T21:45:29.784Z,100.00
2022-11-01T21:48:00.890Z,100.00
2022-11-01T21:50:27.639Z,100.00
2022-11-01T21:52:54.741Z,100.00
2022-11-01T21:55:21.396Z,100.00
2022-11-01T21:57:47.818Z,100.00
2022-11-01T22:00:15.546Z,100.00
2022-11-01T22:02:43.066Z,100.00
2022-11-01T22:05:10.385Z,100.00
2022-11-01T22:07:37.049Z,100.00
2022-11-01T22:10:03.850Z,100.00
2022-11-01T22:12:30.270Z,100.00
2022-11-01T22:14:56.703Z,100.00
2022-11-01T22:17:23.121Z,100.00
2022-11-01T22:19:49.661Z,100.00
2022-11-01T22:22:16.074Z,100.00
2022-11-01T22:24:42.503Z,100.00
2022-11-01T22:27:08.939Z,100.00
2022-11-01T22:29:35.531Z,100.00
2022-11-01T22:32:02.338Z,100.00
2022-11-01T22:34:28.827Z,100.00
2022-11-01T22:36:56.362Z,100.00
2022-11-01T22:39:25.882Z,100.00
2022-11-01T22:41:53.700Z,100.00
2022-11-01T22:44:39.331Z,100.00
2022-11-01T22:47:06.526Z,100.00
2022-11-01T22:49:35.359Z,100.00
2022-11-01T22:52:37.866Z,100.00
2022-11-01T22:55:27.333Z,100.00
2022-11-01T22:58:03.811Z,100.00
2022-11-01T23:00:33.558Z,100.00
2022-11-01T23:03:19.555Z,100.00
2022-11-01T23:05:47.330Z,100.00
2022-11-01T23:08:32.391Z,100.00
2022-11-01T23:10:58.935Z,100.00
2022-11-01T23:13:47.772Z,100.00
2022-11-01T23:16:23.009Z,100.00
2022-11-01T23:18:50.242Z,100.00
2022-11-01T23:21:17.115Z,100.00
2022-11-01T23:23:45.239Z,100.00
2022-11-01T23:26:13.069Z,100.00
2022-11-01T23:28:44.651Z,100.00
2022-11-01T23:31:12.068Z,100.00
2022-11-01T23:33:39.546Z,100.00
2022-11-01T23:36:14.434Z,100.00
2022-11-01T23:38:46.029Z,100.00
2022-11-01T23:41:23.236Z,100.00
2022-11-01T23:43:51.960Z,100.00
2022-11-01T23:46:19.192Z,100.00
2022-11-01T23:48:46.504Z,100.00
2022-11-01T23:51:19.154Z,100.00
2022-11-01T23:53:51.610Z,100.00
2022-11-01T23:56:19.685Z,100.00
2022-11-01T23:58:50.464Z,100.00
